createdAt,value
2022-11-05T00:00:13.546Z,82.30
2022-11-05T00:05:17.199Z,83.30
2022-11-05T00:10:21.666Z,83.10
2022-11-05T00:15:23.749Z,83.00
2022-11-05T00:20:27.369Z,82.80
2022-11-05T00:25:29.536Z,82.40
2022-11-05T00:30:31.692Z,82.20
2022-11-05T00:35:35.218Z,82.20
2022-11-05T00:40:37.717Z,82.10
2022-11-05T00:45:39.882Z,82.00
2022-11-05T00:50:43.436Z,81.80
2022-11-05T00:55:46.462Z,81.60
2022-11-05T01:00:50.925Z,81.80
2022-11-05T01:05:56.848Z,82.00
2022-11-05T01:11:00.142Z,82.10
2022-11-05T01:16:07.119Z,82.10
2022-11-05T01:21:14.882Z,82.20
2022-11-05T01:26:18.022Z,82.30
2022-11-05T01:31:20.718Z,82.00
2022-11-05T01:36:24.253Z,82.20
2022-11-05T01:41:26.359Z,82.30
2022-11-05T01:46:32.777Z,82.30
2022-11-05T01:51:38.604Z,82.40
2022-11-05T01:56:44.252Z,82.50
2022-11-05T02:01:46.789Z,82.50
2022-11-05T02:06:50.531Z,82.60
2022-11-05T02:11:52.617Z,82.70
2022-11-05T02:17:01.278Z,82.50
2022-11-05T02:23:00.511Z,82.80
2022-11-05T02:28:27.265Z,83.80
2022-11-05T02:33:41.844Z,83.30
2022-11-05T02:38:52.863Z,83.10
2022-11-05T02:44:08.734Z,83.10
2022-11-05T02:49:19.737Z,83.30
2022-11-05T02:54:27.026Z,83.20
2022-11-05T02:59:28.930Z,83.20
2022-11-05T03:04:32.740Z,83.60
2022-11-05T03:10:08.429Z,83.60
2022-11-05T03:15:20.579Z,83.50
2022-11-05T03:20:29.055Z,83.30
2022-11-05T03:25:37.094Z,83.30
2022-11-05T03:30:42.328Z,83.40
2022-11-05T03:35:48.233Z,83.50
2022-11-05T03:40:54.559Z,83.50
2022-11-05T03:46:01.033Z,83.40
2022-11-05T03:51:10.136Z,83.50
2022-11-05T03:56:17.934Z,83.60
2022-11-05T04:01:20.175Z,83.60
2022-11-05T04:06:24.018Z,83.60
2022-11-05T04:11:26.221Z,83.80
2022-11-05T04:16:28.442Z,83.90
2022-11-05T04:21:31.958Z,83.90
2022-11-05T04:26:34.304Z,84.00
2022-11-05T04:31:36.659Z,84.10
2022-11-05T04:36:40.226Z,84.00
2022-11-05T04:41:42.506Z,84.00
2022-11-05T04:46:44.598Z,84.10
2022-11-05T04:51:48.183Z,84.10
2022-11-05T04:56:50.357Z,84.30
2022-11-05T05:01:52.835Z,84.10
2022-11-05T05:06:56.434Z,84.30
2022-11-05T05:11:58.515Z,84.30
2022-11-05T05:17:00.738Z,84.40
2022-11-05T05:22:04.235Z,84.50
2022-11-05T05:27:06.362Z,84.50
2022-11-05T05:32:08.532Z,84.60
2022-11-05T05:37:12.165Z,84.70
2022-11-05T05:42:14.780Z,84.70
2022-11-05T05:47:16.943Z,84.80
2022-11-05T05:52:20.561Z,84.80
2022-11-05T05:57:22.674Z,85.00
2022-11-05T06:02:24.924Z,84.90
2022-11-05T06:07:33.053Z,85.20
2022-11-05T06:12:38.744Z,85.20
2022-11-05T06:17:42.991Z,85.40
2022-11-05T06:22:54.784Z,85.50
2022-11-05T06:27:56.865Z,86.10
2022-11-05T06:33:03.791Z,85.60
2022-11-05T06:38:07.272Z,85.50
2022-11-05T06:43:09.633Z,85.30
2022-11-05T06:48:11.981Z,85.20
2022-11-05T06:53:15.926Z,85.60
2022-11-05T06:58:18.170Z,85.70
2022-11-05T07:03:20.275Z,85.50
2022-11-05T07:08:23.814Z,86.20
2022-11-05T07:13:26.278Z,87.10
2022-11-05T07:18:28.403Z,87.00
2022-11-05T07:23:31.938Z,85.40
2022-11-05T07:28:34.048Z,84.30
2022-11-05T07:33:36.829Z,83.90
2022-11-05T07:38:40.726Z,83.50
2022-11-05T07:43:42.888Z,83.70
2022-11-05T07:48:44.983Z,85.60
2022-11-05T07:53:48.745Z,86.60
2022-11-05T07:58:50.869Z,86.10
2022-11-05T08:03:53.043Z,85.80
2022-11-05T08:08:56.674Z,84.60
2022-11-05T08:13:58.873Z,82.70
2022-11-05T08:19:01.042Z,82.40
2022-11-05T08:24:05.025Z,79.90
2022-11-05T08:29:07.188Z,78.20
2022-11-05T08:34:09.541Z,77.10
2022-11-05T08:39:16.942Z,76.30
2022-11-05T08:44:19.531Z,74.70
2022-11-05T08:49:21.861Z,73.70
2022-11-05T08:54:25.379Z,73.20
2022-11-05T08:59:27.563Z,72.30
2022-11-05T09:04:30.313Z,71.60
2022-11-05T09:09:35.405Z,71.40
2022-11-05T09:14:37.587Z,70.50
2022-11-05T09:19:40.256Z,70.60
2022-11-05T09:24:44.237Z,70.00
2022-11-05T09:29:46.424Z,69.60
2022-11-05T09:34:48.644Z,69.20
2022-11-05T09:39:52.187Z,67.80
2022-11-05T09:44:57.791Z,67.30
2022-11-05T09:50:03.551Z,68.00
2022-11-05T09:55:20.972Z,67.70
2022-11-05T10:00:23.383Z,66.90
2022-11-05T10:05:27.556Z,66.90
2022-11-05T10:10:41.077Z,66.20
2022-11-05T10:15:50.950Z,65.60
2022-11-05T10:20:53.306Z,66.40
2022-11-05T10:26:00.723Z,67.30
2022-11-05T10:31:06.017Z,65.30
2022-11-05T10:36:12.383Z,64.30
2022-11-05T10:41:43.396Z,64.20
2022-11-05T10:46:52.096Z,62.90
2022-11-05T10:51:57.242Z,64.30
2022-11-05T10:57:00.960Z,64.20
2022-11-05T11:02:17.008Z,63.80
2022-11-05T11:07:23.280Z,63.10
2022-11-05T11:12:40.920Z,63.10
2022-11-05T11:17:46.086Z,63.50
2022-11-05T11:23:00.550Z,63.40
2022-11-05T11:28:08.058Z,62.00
2022-11-05T11:33:13.254Z,61.60
2022-11-05T11:38:17.301Z,61.30
2022-11-05T11:43:28.102Z,61.10
2022-11-05T11:48:31.532Z,59.00
2022-11-05T11:53:36.913Z,60.90
2022-11-05T11:58:44.804Z,60.60
2022-11-05T12:03:51.658Z,60.30
2022-11-05T12:09:06.962Z,59.80
2022-11-05T12:14:21.968Z,58.80
2022-11-05T12:19:34.892Z,58.90
2022-11-05T12:25:05.262Z,58.00
2022-11-05T12:30:14.049Z,57.80
2022-11-05T12:35:42.768Z,58.60
2022-11-05T12:41:09.928Z,59.10
2022-11-05T12:46:26.762Z,59.80
2022-11-05T12:51:44.567Z,60.80
2022-11-05T12:56:51.375Z,61.10
2022-11-05T13:02:00.937Z,61.70
2022-11-05T13:07:08.051Z,62.80
2022-11-05T13:12:14.054Z,63.10
2022-11-05T13:17:20.644Z,63.40
2022-11-05T13:22:33.469Z,63.50
2022-11-05T13:27:53.682Z,64.70
2022-11-05T13:33:03.235Z,65.00
2022-11-05T13:38:13.975Z,65.20
2022-11-05T13:43:34.326Z,65.70
2022-11-05T13:49:20.138Z,66.60
2022-11-05T13:54:50.236Z,67.00
2022-11-05T14:00:05.775Z,67.50
2022-11-05T14:05:23.032Z,68.30
2022-11-05T14:10:29.036Z,68.60
2022-11-05T14:15:34.673Z,68.40
2022-11-05T14:20:54.252Z,68.90
2022-11-05T14:25:57.913Z,69.60
2022-11-05T14:31:00.749Z,69.60
2022-11-05T14:36:36.945Z,69.80
2022-11-05T14:41:57.123Z,70.70
2022-11-05T14:47:03.177Z,70.90
2022-11-05T14:52:10.151Z,70.90
2022-11-05T14:57:14.457Z,71.30
2022-11-05T15:02:19.199Z,71.10
2022-11-05T15:07:38.100Z,71.20
2022-11-05T15:12:45.593Z,71.80
2022-11-05T15:17:58.941Z,71.40
2022-11-05T15:23:06.423Z,71.60
2022-11-05T15:28:20.339Z,71.70
2022-11-05T15:33:23.008Z,72.20
2022-11-05T15:38:29.870Z,71.90
2022-11-05T15:43:32.921Z,72.20
2022-11-05T15:48:36.611Z,72.10
2022-11-05T15:54:29.023Z,72.40
2022-11-05T15:59:23.799Z,73.30
2022-11-05T16:04:28.886Z,72.70
2022-11-05T16:09:36.168Z,73.10
2022-11-05T16:14:38.492Z,73.40
2022-11-05T16:19:42.729Z,73.30
2022-11-05T16:24:48.177Z,73.60
2022-11-05T16:29:53.366Z,73.80
2022-11-05T16:34:57.942Z,74.00
2022-11-05T16:40:01.691Z,74.20
2022-11-05T16:45:05.260Z,74.20
2022-11-05T16:50:19.063Z,74.20
2022-11-05T16:55:31.046Z,74.30
2022-11-05T17:06:44.702Z,74.50
2022-11-05T17:18:32.330Z,74.40
2022-11-05T17:25:25.495Z,75.10
2022-11-05T17:30:12.945Z,74.30
2022-11-05T17:35:15.909Z,74.30
2022-11-05T17:40:20.235Z,74.30
2022-11-05T17:45:24.002Z,74.50
2022-11-05T17:50:26.535Z,74.70
2022-11-05T17:55:28.886Z,74.80
2022-11-05T18:00:32.716Z,75.00
2022-11-05T18:05:35.214Z,75.10
2022-11-05T18:10:40.165Z,75.30
2022-11-05T18:15:43.896Z,75.70
2022-11-05T18:20:46.208Z,75.30
2022-11-05T18:25:48.464Z,75.40
2022-11-05T18:30:54.378Z,75.50
2022-11-05T18:35:56.890Z,75.60
2022-11-05T18:41:05.216Z,75.60
2022-11-05T18:46:12.946Z,75.60
2022-11-05T18:51:27.174Z,75.70
2022-11-05T18:56:29.655Z,75.80
2022-11-05T19:01:33.496Z,75.90
2022-11-05T19:06:36.799Z,75.90
2022-11-05T19:11:39.484Z,75.90
2022-11-05T19:16:43.314Z,75.90
2022-11-05T19:21:45.619Z,76.00
2022-11-05T19:26:47.912Z,76.00
2022-11-05T19:31:51.875Z,76.10
2022-11-05T19:36:54.437Z,76.20
2022-11-05T19:42:02.964Z,76.20
2022-11-05T19:47:07.783Z,76.10
2022-11-05T19:52:10.305Z,76.40
2022-11-05T19:57:13.385Z,76.30
2022-11-05T20:02:17.268Z,76.40
2022-11-05T20:07:20.075Z,76.40
2022-11-05T20:12:22.304Z,76.40
2022-11-05T20:17:26.067Z,76.60
2022-11-05T20:22:28.649Z,77.10
2022-11-05T20:27:31.085Z,76.70
2022-11-05T20:32:34.963Z,76.80
2022-11-05T20:37:37.239Z,76.90
2022-11-05T20:42:42.244Z,77.00
2022-11-05T20:47:46.705Z,77.30
2022-11-05T20:52:49.044Z,77.30
2022-11-05T20:57:52.905Z,77.40
2022-11-05T21:02:56.969Z,77.40
2022-11-05T21:07:59.434Z,77.40
2022-11-05T21:13:01.957Z,77.30
2022-11-05T21:18:05.836Z,77.40
2022-11-05T21:23:08.086Z,77.50
2022-11-05T21:28:12.078Z,77.50
2022-11-05T21:33:18.302Z,77.40
2022-11-05T21:38:20.861Z,77.60
2022-11-05T21:43:23.127Z,77.70
2022-11-05T21:48:26.888Z,77.90
2022-11-05T21:53:29.270Z,78.20
2022-11-05T21:58:31.858Z,78.50
2022-11-05T22:03:35.601Z,78.50
2022-11-05T22:08:38.000Z,78.70
2022-11-05T22:13:40.326Z,78.70
2022-11-05T22:18:45.770Z,78.80
2022-11-05T22:23:52.255Z,79.20
2022-11-05T22:28:55.190Z,79.20
2022-11-05T22:33:59.093Z,79.50
2022-11-05T22:39:02.303Z,79.80
2022-11-05T22:44:05.033Z,80.00
2022-11-05T22:49:09.188Z,80.30
2022-11-05T22:54:11.493Z,80.60
2022-11-05T22:59:15.333Z,80.50
2022-11-05T23:04:19.041Z,81.00
2022-11-05T23:09:23.068Z,81.00
2022-11-05T23:14:25.755Z,81.30
2022-11-05T23:19:29.848Z,81.30
2022-11-05T23:24:32.142Z,81.30
2022-11-05T23:29:34.487Z,81.30
2022-11-05T23:34:38.688Z,81.30
2022-11-05T23:39:42.897Z,81.40
2022-11-05T23:44:45.335Z,81.30
2022-11-05T23:49:49.003Z,81.30
2022-11-05T23:54:51.232Z,81.40
2022-11-05T23:59:53.535Z,81.20
